Kakamas, South Africa
Current Conditions -  °F | °C
As of 2:00 AM on Saturday 25 Oct 2014 (Local Time) from FAUP Reporting Station
Clear Clear  
Wind Chill: 70°   Ceiling: Unl
Heat Index: 70°   Visibility: 6mi
Dew Point: 45°   Wind: 3mph
Humidity: 40%   Direction: 220°SW
Pressure: 29.91"   Gusts: NA
Location:  28.77°S, 20.61°E
Report Text: FAUP 250000Z 22003KT CAVOK 21/07 Q1013 NOSIG
Loading
Personal Weather Stations






























Interactive Weather Map
Tropical Storm Tracking
New forecast layout! Learn more

10-Day Weather Forecast

Advertisements
Track Severe Weather on mobile